createdAt,value
2018-08-03T00:02:32.000Z,44.1
2018-08-03T00:12:32.000Z,44
2018-08-03T00:22:32.000Z,44.2
2018-08-03T00:32:33.000Z,44.2
2018-08-03T00:42:33.000Z,44.3
2018-08-03T00:52:33.000Z,44.5
2018-08-03T01:02:33.000Z,44.8
2018-08-03T01:12:33.000Z,45
2018-08-03T01:22:33.000Z,44.8
2018-08-03T01:32:33.000Z,45
2018-08-03T01:42:33.000Z,45.1
2018-08-03T01:52:33.000Z,45.7
2018-08-03T02:02:33.000Z,45.9
2018-08-03T02:12:33.000Z,46.2
2018-08-03T02:22:33.000Z,46
2018-08-03T02:32:33.000Z,46
2018-08-03T02:42:33.000Z,46
2018-08-03T03:02:33.000Z,46.6
2018-08-03T03:12:33.000Z,47.1
2018-08-03T03:22:33.000Z,47.2
2018-08-03T03:32:33.000Z,47.8
2018-08-03T03:42:33.000Z,48
2018-08-03T03:52:33.000Z,48.2
2018-08-03T04:02:33.000Z,48.4
2018-08-03T04:12:33.000Z,48.5
2018-08-03T04:22:33.000Z,48.5
2018-08-03T04:32:33.000Z,48.6
2018-08-03T04:42:33.000Z,49
2018-08-03T04:52:33.000Z,49
2018-08-03T05:02:33.000Z,48.6
2018-08-03T05:12:33.000Z,47.7
2018-08-03T05:22:33.000Z,46.6
2018-08-03T05:32:33.000Z,46
2018-08-03T05:42:33.000Z,45.6
2018-08-03T05:52:33.000Z,45.6
2018-08-03T06:02:33.000Z,45.5
2018-08-03T06:12:33.000Z,45
2018-08-03T06:22:33.000Z,44.7
2018-08-03T06:32:33.000Z,44.9
2018-08-03T06:42:33.000Z,44
2018-08-03T06:52:34.000Z,44.6
2018-08-03T07:02:33.000Z,46.3
2018-08-03T07:12:34.000Z,44.9
2018-08-03T07:22:34.000Z,45.2
2018-08-03T07:32:34.000Z,46.1
2018-08-03T07:42:34.000Z,46.1
2018-08-03T07:52:34.000Z,46.1
2018-08-03T08:02:34.000Z,45.2
2018-08-03T08:12:34.000Z,47.3
2018-08-03T08:22:34.000Z,46.9
2018-08-03T08:32:34.000Z,47.5
2018-08-03T08:42:34.000Z,47.8
2018-08-03T08:52:34.000Z,47.8
2018-08-03T09:02:34.000Z,47.7
2018-08-03T09:12:34.000Z,48
2018-08-03T09:22:34.000Z,48
2018-08-03T09:32:34.000Z,48.7
2018-08-03T09:42:34.000Z,49.5
2018-08-03T09:52:34.000Z,49
2018-08-03T10:02:34.000Z,49.3
2018-08-03T10:12:34.000Z,48.8
2018-08-03T10:22:34.000Z,48.5
2018-08-03T10:32:34.000Z,51.1
2018-08-03T10:42:34.000Z,50.5
2018-08-03T10:52:34.000Z,49.2
2018-08-03T11:02:34.000Z,49.8
2018-08-03T11:12:34.000Z,48.6
2018-08-03T11:22:34.000Z,48.2
2018-08-03T11:32:34.000Z,50
2018-08-03T11:42:34.000Z,48.6
2018-08-03T11:52:34.000Z,48.5
2018-08-03T12:02:34.000Z,48.4
2018-08-03T12:12:35.000Z,47.8
2018-08-03T12:22:34.000Z,48
2018-08-03T12:32:34.000Z,48.2
2018-08-03T12:42:34.000Z,46.7
2018-08-03T12:52:34.000Z,46.5
2018-08-03T13:02:34.000Z,45.5
2018-08-03T13:12:34.000Z,45.1
2018-08-03T13:22:34.000Z,45.1
2018-08-03T13:32:35.000Z,45.2
2018-08-03T13:42:34.000Z,45.5
2018-08-03T13:52:35.000Z,45.2
2018-08-03T14:02:35.000Z,45.5
2018-08-03T14:12:35.000Z,44.9
2018-08-03T14:22:35.000Z,45.3
2018-08-03T14:32:35.000Z,44.9
2018-08-03T14:42:35.000Z,44.7
2018-08-03T14:52:35.000Z,44.7
2018-08-03T15:02:35.000Z,44.8
2018-08-03T15:12:35.000Z,44.6
2018-08-03T15:22:35.000Z,44.5
2018-08-03T15:32:35.000Z,44.3
2018-08-03T15:42:35.000Z,44
2018-08-03T15:52:35.000Z,43.8
2018-08-03T16:02:35.000Z,43.6
2018-08-03T16:12:35.000Z,43.3
2018-08-03T16:22:35.000Z,43.3
2018-08-03T16:32:35.000Z,43.2
2018-08-03T16:42:35.000Z,43
2018-08-03T16:52:35.000Z,43.1
2018-08-03T17:02:35.000Z,42.9
2018-08-03T17:12:35.000Z,42.8
2018-08-03T17:22:35.000Z,43
2018-08-03T17:32:35.000Z,43.1
2018-08-03T17:42:35.000Z,43
2018-08-03T17:52:35.000Z,43
2018-08-03T18:02:35.000Z,43
2018-08-03T18:12:35.000Z,43.1
2018-08-03T18:22:35.000Z,43
2018-08-03T18:32:35.000Z,43.1
2018-08-03T18:42:35.000Z,43.1
2018-08-03T18:52:35.000Z,43.2
2018-08-03T19:02:35.000Z,43.2
2018-08-03T19:12:35.000Z,43.3
2018-08-03T19:22:35.000Z,43.4
2018-08-03T19:32:35.000Z,43.5
2018-08-03T19:42:35.000Z,43.9
2018-08-03T19:52:35.000Z,44.1
2018-08-03T20:02:36.000Z,44.2
2018-08-03T20:12:35.000Z,44.3
2018-08-03T20:22:36.000Z,44.5
2018-08-03T20:32:36.000Z,44.7
2018-08-03T20:42:36.000Z,44.8
2018-08-03T20:52:36.000Z,44.9
2018-08-03T21:02:36.000Z,45
2018-08-03T21:12:36.000Z,45
2018-08-03T21:22:36.000Z,44.9
2018-08-03T21:32:36.000Z,44.8
2018-08-03T21:42:36.000Z,44.7
2018-08-03T21:52:36.000Z,44.6
2018-08-03T22:02:36.000Z,44.3
2018-08-03T22:12:36.000Z,44.3
2018-08-03T22:22:36.000Z,43.9
2018-08-03T22:32:36.000Z,42.5
2018-08-03T22:42:36.000Z,41.8
2018-08-03T22:52:36.000Z,41.7
2018-08-03T23:02:36.000Z,41.4
2018-08-03T23:12:36.000Z,41.2
2018-08-03T23:22:36.000Z,41
2018-08-03T23:32:36.000Z,40.9
2018-08-03T23:42:36.000Z,40.9
2018-08-03T23:52:36.000Z,40.8
